Time;durP1;ratioP1;P1;durP2;ratioP2;P2;SDS_P1;SDS_P2;PMS_P1;PMS_P2;Temp;Humidity;BMP_temperature;BMP_pressure;BME280_temperature;BME280_humidity;BME280_pressure;Samples;Min_cycle;Max_cycle;Signal;HPM_P1;HPM_P2
2023/08/03 00:48:57;;;;;;;12.73;10.73;;;;;;;;;;2581078;23;20218;-95
2023/08/03 00:50:00;;;;;;;14.43;11.47;;;;;;;;;;2562435;23;20012;-95
2023/08/03 00:51:04;;;;;;;13.48;11.75;;;;;;;;;;2548366;23;20272;-95
2023/08/03 00:52:08;;;;;;;12.27;11.05;;;;;;;;;;2560419;23;20001;-95
2023/08/03 00:53:10;;;;;;;13.75;11.80;;;;;;;;;;2559987;23;19993;-96
2023/08/03 00:54:11;;;;;;;14.95;11.63;;;;;;;;;;2545864;23;19993;-96
2023/08/03 00:55:11;;;;;;;12.90;11.20;;;;;;;;;;2545807;23;20012;-96
2023/08/03 00:56:12;;;;;;;13.30;11.35;;;;;;;;;;2552055;23;20091;-95
2023/08/03 00:57:13;;;;;;;12.70;11.13;;;;;;;;;;2544146;23;20002;-95
2023/08/03 00:58:14;;;;;;;12.80;10.52;;;;;;;;;;2543576;23;20060;-96
2023/08/03 00:59:15;;;;;;;13.77;11.52;;;;;;;;;;2556355;23;20046;-95
2023/08/03 01:00:20;;;;;;;13.52;11.23;;;;;;;;;;2557017;23;20043;-94
2023/08/03 01:01:21;;;;;;;12.35;11.05;;;;;;;;;;2556318;23;19989;-96
2023/08/03 01:02:24;;;;;;;13.07;11.55;;;;;;;;;;2540259;23;20013;-95
2023/08/03 01:03:29;;;;;;;12.85;11.55;;;;;;;;;;2535802;23;20010;-95
2023/08/03 01:04:32;;;;;;;12.85;11.45;;;;;;;;;;2535096;23;20028;-96
2023/08/03 01:05:33;;;;;;;12.60;11.30;;;;;;;;;;2534233;23;20085;-95
2023/08/03 01:06:33;;;;;;;12.95;11.07;;;;;;;;;;2534174;23;19998;-96
2023/08/03 01:07:37;;;;;;;13.27;11.52;;;;;;;;;;2533571;23;19994;-95
2023/08/03 01:08:38;;;;;;;13.10;11.18;;;;;;;;;;2546219;23;20089;-95
2023/08/03 01:09:40;;;;;;;12.43;11.02;;;;;;;;;;2546703;23;20004;-96
2023/08/03 01:10:41;;;;;;;14.35;10.93;;;;;;;;;;2546917;23;20117;-96
2023/08/03 01:11:45;;;;;;;14.35;10.90;;;;;;;;;;2548230;23;20210;-96
2023/08/03 01:12:48;;;;;;;13.07;11.75;;;;;;;;;;2534968;23;20089;-96
2023/08/03 01:13:52;;;;;;;12.63;11.32;;;;;;;;;;2542938;23;20045;-95
2023/08/03 01:14:56;;;;;;;12.40;11.10;;;;;;;;;;2544566;23;20017;-96
2023/08/03 01:15:59;;;;;;;14.77;11.02;;;;;;;;;;2543697;23;20069;-96
2023/08/03 01:17:02;;;;;;;13.38;11.60;;;;;;;;;;2545352;23;19990;-96
2023/08/03 01:18:06;;;;;;;12.73;11.15;;;;;;;;;;2552762;23;20089;-94
2023/08/03 01:19:09;;;;;;;14.85;11.23;;;;;;;;;;2537207;23;19993;-95
2023/08/03 01:20:10;;;;;;;15.30;11.60;;;;;;;;;;2534579;23;20028;-95
2023/08/03 01:21:11;;;;;;;13.02;11.48;;;;;;;;;;2535957;23;19997;-95
2023/08/03 01:22:13;;;;;;;13.05;10.95;;;;;;;;;;2536038;23;19994;-96
2023/08/03 01:23:16;;;;;;;12.60;10.73;;;;;;;;;;2535501;23;19998;-95
2023/08/03 01:24:19;;;;;;;12.05;10.75;;;;;;;;;;2534063;23;20005;-95
2023/08/03 01:25:22;;;;;;;12.02;10.25;;;;;;;;;;2533994;23;19993;-93
2023/08/03 01:26:23;;;;;;;13.02;11.25;;;;;;;;;;2533571;23;20078;-96
2023/08/03 01:27:24;;;;;;;13.05;10.40;;;;;;;;;;2532697;23;20024;-96
2023/08/03 01:28:24;;;;;;;12.70;11.18;;;;;;;;;;2534420;23;20055;-94
2023/08/03 01:29:25;;;;;;;12.15;10.90;;;;;;;;;;2538706;23;20004;-95
2023/08/03 01:30:26;;;;;;;12.43;11.13;;;;;;;;;;2538538;23;20446;-94
2023/08/03 02:00:08;;;;;;;13.05;11.68;;;;;;;;;;2579779;23;20024;-95
2023/08/03 02:01:08;;;;;;;14.50;11.73;;;;;;;;;;2558261;23;20017;-95
2023/08/03 02:02:09;;;;;;;13.30;11.38;;;;;;;;;;2545049;23;19993;-95
2023/08/03 02:03:14;;;;;;;14.82;11.18;;;;;;;;;;2557945;23;20044;-95
2023/08/03 02:04:14;;;;;;;14.35;11.32;;;;;;;;;;2558402;23;19997;-94
2023/08/03 02:05:15;;;;;;;12.75;11.27;;;;;;;;;;2557800;23;20015;-95
2023/08/03 02:06:15;;;;;;;12.68;11.38;;;;;;;;;;2557355;23;20127;-95
2023/08/03 02:07:18;;;;;;;15.15;12.10;;;;;;;;;;2557759;23;19993;-95
2023/08/03 02:08:18;;;;;;;13.30;11.35;;;;;;;;;;2133259;23;10000136;-94
2023/08/03 02:09:19;;;;;;;13.07;11.38;;;;;;;;;;2557359;23;20032;-96
2023/08/03 02:10:21;;;;;;;14.20;11.48;;;;;;;;;;2557816;23;20554;-95
2023/08/03 02:11:23;;;;;;;12.38;11.07;;;;;;;;;;2557614;23;20567;-96
2023/08/03 02:12:24;;;;;;;13.30;11.93;;;;;;;;;;2556985;23;20458;-95
2023/08/03 02:13:26;;;;;;;14.50;11.68;;;;;;;;;;2570013;23;20071;-95
2023/08/03 02:14:26;;;;;;;14.20;12.70;;;;;;;;;;2569455;23;19993;-94
2023/08/03 02:15:27;;;;;;;13.18;11.55;;;;;;;;;;2557617;23;19993;-96
2023/08/03 02:16:28;;;;;;;14.50;12.00;;;;;;;;;;2558154;23;20008;-96
2023/08/03 02:17:28;;;;;;;13.25;11.90;;;;;;;;;;2557566;23;19997;-96
2023/08/03 02:27:57;;;;;;;13.70;12.18;;;;;;;;;;2549384;23;20751;-95
2023/08/03 02:28:59;;;;;;;14.35;11.80;;;;;;;;;;2569498;23;20028;-95
2023/08/03 02:30:00;;;;;;;14.63;12.57;;;;;;;;;;2558520;23;20000;-96
2023/08/03 02:31:10;;;;;;;15.57;12.50;;;;;;;;;;2557406;23;20004;-95
2023/08/03 02:32:11;;;;;;;14.60;12.05;;;;;;;;;;2575158;23;20000;-95
2023/08/03 02:33:14;;;;;;;15.23;13.23;;;;;;;;;;2557863;23;19993;-94
2023/08/03 02:34:14;;;;;;;16.85;12.93;;;;;;;;;;2559985;23;20047;-94
2023/08/03 02:35:24;;;;;;;13.98;12.55;;;;;;;;;;2559410;23;20000;-96
2023/08/03 02:36:24;;;;;;;14.40;12.38;;;;;;;;;;2564987;23;20505;-96
2023/08/03 02:37:25;;;;;;;15.82;13.10;;;;;;;;;;2579770;22;20048;-96
2023/08/03 02:38:26;;;;;;;15.13;12.43;;;;;;;;;;2581153;22;19999;-95
2023/08/03 02:39:28;;;;;;;14.55;13.05;;;;;;;;;;2573808;23;20091;-96
2023/08/03 02:40:32;;;;;;;14.15;12.30;;;;;;;;;;2559919;23;20035;-96
2023/08/03 02:41:38;;;;;;;14.07;11.82;;;;;;;;;;2570853;23;20094;-96
2023/08/03 02:42:38;;;;;;;13.45;11.70;;;;;;;;;;2569061;23;20071;-96
2023/08/03 02:43:39;;;;;;;14.07;12.15;;;;;;;;;;2558558;23;20001;-95
2023/08/03 02:44:39;;;;;;;17.58;12.10;;;;;;;;;;2570251;23;20127;-94
2023/08/03 02:45:40;;;;;;;16.08;12.45;;;;;;;;;;2558260;23;20284;-96
2023/08/03 02:46:41;;;;;;;14.95;12.73;;;;;;;;;;2545802;23;20024;-95
2023/08/03 02:47:41;;;;;;;16.33;12.55;;;;;;;;;;2558053;23;20187;-95
2023/08/03 02:48:42;;;;;;;13.30;11.90;;;;;;;;;;2570568;23;20391;-95
2023/08/03 02:49:42;;;;;;;15.00;11.88;;;;;;;;;;2569664;23;20099;-96
2023/08/03 02:50:43;;;;;;;17.60;13.27;;;;;;;;;;2557940;23;20031;-95
2023/08/03 02:51:44;;;;;;;14.50;11.98;;;;;;;;;;2557856;23;20422;-96
2023/08/03 02:52:45;;;;;;;13.82;11.32;;;;;;;;;;2570167;23;20028;-95
2023/08/03 02:53:47;;;;;;;29.85;13.60;;;;;;;;;;2570905;23;20004;-95
2023/08/03 03:05:48;;;;;;;15.13;12.43;;;;;;;;;;2544508;23;20025;-96
2023/08/03 03:06:48;;;;;;;13.00;11.63;;;;;;;;;;2558226;23;20108;-96
2023/08/03 03:07:50;;;;;;;15.38;12.68;;;;;;;;;;2561256;23;19997;-96
2023/08/03 03:09:03;;;;;;;15.57;12.60;;;;;;;;;;2572798;23;20007;-96
2023/08/03 03:19:51;;;;;;;13.67;12.27;;;;;;;;;;2575421;23;20047;-93
2023/08/03 03:20:57;;;;;;;13.95;12.45;;;;;;;;;;2565997;23;20240;-93
2023/08/03 03:21:57;;;;;;;14.20;12.23;;;;;;;;;;2569140;23;19993;-94
2023/08/03 03:22:58;;;;;;;15.43;12.88;;;;;;;;;;2560564;23;20343;-95
2023/08/03 03:24:11;;;;;;;15.65;12.30;;;;;;;;;;2547873;23;19998;-96
2023/08/03 03:25:14;;;;;;;15.82;12.80;;;;;;;;;;2574268;22;20078;-95
2023/08/03 03:26:16;;;;;;;15.38;13.23;;;;;;;;;;2568969;23;19989;-96
2023/08/03 03:27:20;;;;;;;14.27;12.40;;;;;;;;;;2549934;23;20387;-94
2023/08/03 03:28:21;;;;;;;15.73;13.13;;;;;;;;;;2560169;23;20028;-96
2023/08/03 03:29:21;;;;;;;15.77;12.80;;;;;;;;;;2546776;23;20304;-96
2023/08/03 03:30:22;;;;;;;15.50;12.93;;;;;;;;;;2550154;23;20004;-94
2023/08/03 03:31:25;;;;;;;14.50;12.38;;;;;;;;;;2558638;23;20407;-96
2023/08/03 03:32:28;;;;;;;15.23;12.48;;;;;;;;;;2558998;23;19997;-95
2023/08/03 03:33:39;;;;;;;;;;;;;;;;;;;;;
2023/08/03 03:35:08;;;;;;;;;;;;;;;;;;;;;
2023/08/03 03:37:23;;;;;;;15.40;12.68;;;;;;;;;;2586870;22;20016;-95
2023/08/03 03:38:23;;;;;;;14.48;12.85;;;;;;;;;;2571546;23;20000;-95
2023/08/03 03:39:33;;;;;;;15.48;12.98;;;;;;;;;;2577291;23;20000;-95
2023/08/03 03:40:34;;;;;;;18.00;13.73;;;;;;;;;;2572871;23;20035;-96
2023/08/03 03:41:44;;;;;;;15.70;12.40;;;;;;;;;;2560451;23;20009;-96
2023/08/03 03:42:44;;;;;;;16.02;12.73;;;;;;;;;;2564531;23;20071;-95
2023/08/03 03:43:47;;;;;;;15.90;12.93;;;;;;;;;;2560339;23;20087;-96
2023/08/03 03:44:47;;;;;;;16.33;13.80;;;;;;;;;;2547223;23;20002;-93
2023/08/03 03:45:51;;;;;;;17.90;13.85;;;;;;;;;;2572185;23;20072;-94
2023/08/03 03:46:59;;;;;;;15.25;13.35;;;;;;;;;;2583514;23;20406;-95
2023/08/03 03:59:49;;;;;;;15.30;13.67;;;;;;;;;;2566784;23;20300;-96
2023/08/03 04:00:50;;;;;;;15.90;12.90;;;;;;;;;;2575106;23;20012;-96
2023/08/03 04:01:51;;;;;;;15.15;12.75;;;;;;;;;;2558107;23;20004;-93
2023/08/03 04:02:52;;;;;;;16.17;13.23;;;;;;;;;;2557856;23;20059;-96
2023/08/03 04:07:47;;;;;;;15.80;12.95;;;;;;;;;;2549475;23;20073;-96
2023/08/03 04:08:47;;;;;;;17.58;13.90;;;;;;;;;;2532753;23;19997;-95
2023/08/03 04:09:48;;;;;;;16.55;13.55;;;;;;;;;;2520888;23;20513;-95
2023/08/03 04:10:50;;;;;;;16.25;12.90;;;;;;;;;;2534265;23;20005;-95
2023/08/03 04:11:50;;;;;;;14.80;13.07;;;;;;;;;;2533272;23;20288;-96
2023/08/03 04:13:03;;;;;;;16.73;13.60;;;;;;;;;;2530115;23;20010;-96
2023/08/03 09:31:48;;;;;;;8.00;7.20;;;;;;;;;;2574109;22;20020;-93
2023/08/03 09:32:49;;;;;;;8.88;7.70;;;;;;;;;;2569605;23;20016;-94
2023/08/03 09:33:58;;;;;;;8.70;7.43;;;;;;;;;;2574736;23;20004;-94
2023/08/03 09:34:59;;;;;;;8.85;7.72;;;;;;;;;;2587215;23;19996;-95
2023/08/03 09:36:11;;;;;;;8.93;8.02;;;;;;;;;;2589863;23;20393;-93
2023/08/03 09:37:12;;;;;;;7.93;7.32;;;;;;;;;;2572779;23;20020;-94
2023/08/03 09:38:25;;;;;;;7.95;7.32;;;;;;;;;;2560906;23;19985;-94
2023/08/03 09:39:29;;;;;;;7.65;6.95;;;;;;;;;;2564256;23;20052;-94
2023/08/03 09:40:53;;;;;;;;;;;;;;;;;;;;;
2023/08/03 09:42:28;;;;;;;8.80;7.97;;;;;;;;;;2571304;23;20070;-94
2023/08/03 09:43:38;;;;;;;8.50;7.53;;;;;;;;;;2587146;23;20003;-95
2023/08/03 09:44:39;;;;;;;9.45;8.25;;;;;;;;;;2580917;22;20065;-95
2023/08/03 09:45:40;;;;;;;8.95;8.25;;;;;;;;;;2569988;23;20094;-95
2023/08/03 09:46:42;;;;;;;8.48;7.75;;;;;;;;;;2556902;23;19997;-94
2023/08/03 09:47:43;;;;;;;9.50;8.70;;;;;;;;;;2557338;23;20001;-94
2023/08/03 09:48:44;;;;;;;9.98;8.60;;;;;;;;;;2556858;23;20083;-96
2023/08/03 09:49:59;;;;;;;;;;;;;;;;;;;;;
2023/08/03 09:51:12;;;;;;;8.55;7.75;;;;;;;;;;2574367;23;20003;-96
2023/08/03 09:52:17;;;;;;;9.27;8.45;;;;;;;;;;2588823;23;19992;-96
2023/08/03 09:53:30;;;;;;;8.85;7.95;;;;;;;;;;2587291;23;20000;-96
2023/08/03 09:54:56;;;;;;;8.55;7.85;;;;;;;;;;2574468;23;20058;-96
2023/08/03 09:56:03;;;;;;;9.45;8.55;;;;;;;;;;2562075;23;20142;-94
2023/08/03 09:57:14;;;;;;;8.70;8.00;;;;;;;;;;2584667;22;20009;-95
2023/08/03 09:58:19;;;;;;;9.35;8.18;;;;;;;;;;2580598;22;19985;-94
2023/08/03 09:59:25;;;;;;;9.00;8.20;;;;;;;;;;2586150;22;19997;-95
2023/08/03 10:00:38;;;;;;;8.90;8.18;;;;;;;;;;2578079;22;20056;-96
2023/08/03 10:01:41;;;;;;;8.77;8.00;;;;;;;;;;2560132;23;20059;-95
2023/08/03 10:03:14;;;;;;;10.52;8.63;;;;;;;;;;2558947;23;20347;-94
2023/08/03 10:04:16;;;;;;;9.80;8.90;;;;;;;;;;2546450;23;20051;-94
2023/08/03 10:05:21;;;;;;;9.18;8.38;;;;;;;;;;2557103;23;20383;-96
2023/08/03 10:06:27;;;;;;;9.23;8.43;;;;;;;;;;2558605;23;20140;-96
2023/08/03 10:07:59;;;;;;;8.95;8.15;;;;;;;;;;2558469;23;19989;-95
2023/08/03 10:09:09;;;;;;;8.43;7.72;;;;;;;;;;2577011;23;19999;-95
2023/08/03 10:10:33;;;;;;;8.43;7.50;;;;;;;;;;2574789;23;20084;-95
2023/08/03 10:11:41;;;;;;;8.00;7.25;;;;;;;;;;2561975;23;20001;-95
2023/08/03 10:12:52;;;;;;;9.88;7.88;;;;;;;;;;2559909;23;20055;-96
2023/08/03 10:14:21;;;;;;;8.65;7.30;;;;;;;;;;2564568;23;20003;-95
2023/08/03 10:15:29;;;;;;;7.82;7.13;;;;;;;;;;2564161;23;19999;-94
2023/08/03 10:16:33;;;;;;;8.40;7.70;;;;;;;;;;2560583;23;20096;-96
2023/08/03 10:17:34;;;;;;;8.32;7.53;;;;;;;;;;2557518;23;20001;-94
2023/08/03 10:18:58;;;;;;;8.57;7.57;;;;;;;;;;2569676;23;20079;-94
2023/08/03 10:20:00;;;;;;;7.63;6.80;;;;;;;;;;2568793;23;20005;-95
2023/08/03 10:21:00;;;;;;;7.82;6.90;;;;;;;;;;2557333;23;20001;-96
2023/08/03 10:22:01;;;;;;;8.38;7.60;;;;;;;;;;2557337;23;20347;-94
2023/08/03 10:23:18;;;;;;;8.32;7.63;;;;;;;;;;2557007;23;20117;-95
2023/08/03 10:24:19;;;;;;;8.45;7.75;;;;;;;;;;2573341;23;20000;-95
2023/08/03 10:25:22;;;;;;;7.85;7.15;;;;;;;;;;2571579;23;20075;-94
2023/08/03 10:26:23;;;;;;;7.43;6.82;;;;;;;;;;2573694;23;19999;-94
2023/08/03 10:27:23;;;;;;;8.20;7.40;;;;;;;;;;2569346;23;20012;-95
2023/08/03 10:28:43;;;;;;;7.90;7.20;;;;;;;;;;2572705;23;20392;-96
2023/08/03 10:29:50;;;;;;;;;;;;;;;;;;2570703;23;20008;-95
2023/08/03 10:31:14;;;;;;;8.98;8.10;;;;;;;;;;2569208;22;19912;-93
2023/08/03 10:32:19;;;;;;;9.30;8.40;;;;;;;;;;2584063;22;19999;-95
2023/08/03 10:33:44;;;;;;;9.32;8.52;;;;;;;;;;2587775;23;20028;-96
2023/08/03 10:34:44;;;;;;;8.88;7.82;;;;;;;;;;2569348;23;20000;-94
2023/08/03 10:35:45;;;;;;;9.10;8.30;;;;;;;;;;2556956;23;20371;-96
2023/08/03 10:36:48;;;;;;;9.07;8.18;;;;;;;;;;2556984;23;20070;-94
2023/08/03 10:37:50;;;;;;;8.57;7.82;;;;;;;;;;2557517;23;20009;-95
2023/08/03 10:38:53;;;;;;;8.85;8.02;;;;;;;;;;2556918;23;19997;-95
2023/08/03 10:39:56;;;;;;;8.68;7.68;;;;;;;;;;2557264;23;20044;-95
2023/08/03 10:41:22;;;;;;;9.88;7.88;;;;;;;;;;2557891;23;20352;-95
2023/08/03 10:42:32;;;;;;;8.27;7.57;;;;;;;;;;2562224;23;19992;-96
2023/08/03 10:43:33;;;;;;;9.63;7.93;;;;;;;;;;2575908;23;20002;-96
2023/08/03 10:44:33;;;;;;;9.32;8.45;;;;;;;;;;2569128;23;20012;-95
2023/08/03 10:45:54;;;;;;;8.85;7.97;;;;;;;;;;2557721;23;20438;-95
2023/08/03 10:46:56;;;;;;;7.22;6.63;;;;;;;;;;2561462;23;20473;-95
2023/08/03 10:48:21;;;;;;;7.47;6.78;;;;;;;;;;2569272;23;20082;-96
2023/08/03 10:49:26;;;;;;;7.82;7.13;;;;;;;;;;2563092;23;19992;-95
2023/08/03 10:50:58;;;;;;;7.18;6.57;;;;;;;;;;2559984;23;20008;-96
2023/08/03 10:52:34;;;;;;;;;;;;;;;;;;;;;
2023/08/03 10:53:38;;;;;;;8.38;7.60;;;;;;;;;;2583658;23;20058;-95
2023/08/03 10:54:51;;;;;;;7.80;7.10;;;;;;;;;;2573110;23;20060;-95
2023/08/03 10:56:04;;;;;;;7.32;6.60;;;;;;;;;;2566667;23;20008;-96
2023/08/03 10:57:16;;;;;;;7.82;7.00;;;;;;;;;;2565869;23;19993;-95
2023/08/03 10:58:19;;;;;;;7.57;6.88;;;;;;;;;;2563086;23;20027;-94
2023/08/03 10:59:19;;;;;;;8.05;7.35;;;;;;;;;;2559185;23;19996;-95
2023/08/03 11:00:20;;;;;;;7.88;7.18;;;;;;;;;;2559652;23;20001;-96
2023/08/03 11:01:24;;;;;;;7.43;6.72;;;;;;;;;;2570066;23;20031;-94
2023/08/03 11:02:31;;;;;;;7.72;6.82;;;;;;;;;;2559310;23;20012;-96
2023/08/03 11:03:38;;;;;;;6.82;6.07;;;;;;;;;;2571170;23;20112;-95
2023/08/03 11:04:39;;;;;;;7.32;6.63;;;;;;;;;;2559959;23;20028;-95
2023/08/03 11:05:40;;;;;;;6.53;5.93;;;;;;;;;;2559581;23;20457;-95
2023/08/03 11:06:40;;;;;;;7.00;5.97;;;;;;;;;;2311233;23;5003551;-94
2023/08/03 11:07:43;;;;;;;7.85;7.05;;;;;;;;;;2522315;23;20069;-95
2023/08/03 11:08:47;;;;;;;6.88;5.75;;;;;;;;;;2541169;23;19994;-96
2023/08/03 11:09:48;;;;;;;7.35;6.65;;;;;;;;;;2545330;23;20001;-95
2023/08/03 11:10:49;;;;;;;6.63;6.03;;;;;;;;;;2544879;23;19998;-96
2023/08/03 11:11:54;;;;;;;8.98;6.93;;;;;;;;;;2533906;23;20024;-96
2023/08/03 11:12:55;;;;;;;6.35;5.75;;;;;;;;;;2546948;23;20452;-96
2023/08/03 11:13:57;;;;;;;7.53;6.72;;;;;;;;;;2545296;23;20005;-94
2023/08/03 11:14:59;;;;;;;7.53;6.80;;;;;;;;;;2545727;23;20013;-96
2023/08/03 11:16:00;;;;;;;7.35;6.70;;;;;;;;;;2545001;23;20001;-95
2023/08/03 11:17:01;;;;;;;9.40;6.57;;;;;;;;;;2536331;23;20057;-95
2023/08/03 11:18:01;;;;;;;6.85;6.10;;;;;;;;;;2555124;23;19993;-96
2023/08/03 11:19:02;;;;;;;8.05;6.22;;;;;;;;;;2538981;23;20259;-95
2023/08/03 11:20:04;;;;;;;6.88;6.28;;;;;;;;;;2533875;23;20004;-95
2023/08/03 11:21:07;;;;;;;6.97;6.28;;;;;;;;;;2533651;23;20073;-94
2023/08/03 11:22:11;;;;;;;7.50;6.72;;;;;;;;;;2546949;23;19993;-96
2023/08/03 11:23:12;;;;;;;7.38;6.30;;;;;;;;;;2103287;23;10462896;-94
2023/08/03 11:24:12;;;;;;;7.45;6.75;;;;;;;;;;2533430;23;20002;-95
2023/08/03 11:25:15;;;;;;;8.38;7.57;;;;;;;;;;2533329;23;20060;-95
2023/08/03 11:26:16;;;;;;;7.30;6.60;;;;;;;;;;2533544;23;20021;-95
2023/08/03 11:27:18;;;;;;;7.32;6.63;;;;;;;;;;2533110;23;20024;-96
2023/08/03 11:28:18;;;;;;;7.35;6.47;;;;;;;;;;2533509;23;20045;-94
2023/08/03 11:29:19;;;;;;;7.75;7.03;;;;;;;;;;2534379;23;20001;-93
2023/08/03 11:30:20;;;;;;;7.60;6.90;;;;;;;;;;2533464;23;20033;-93
2023/08/03 11:31:21;;;;;;;8.32;7.32;;;;;;;;;;2532985;23;20427;-96
2023/08/03 11:32:36;;;;;;;7.90;7.10;;;;;;;;;;2532882;23;20106;-96
2023/08/03 11:34:27;;;;;;;7.88;7.05;;;;;;;;;;2537051;23;20029;-94
2023/08/03 11:35:28;;;;;;;;;;;;;;;;;;2526248;23;20001;-94
2023/08/03 11:36:29;;;;;;;6.82;6.22;;;;;;;;;;2535356;23;20029;-95
2023/08/03 11:37:30;;;;;;;8.88;7.13;;;;;;;;;;2533407;23;20025;-94
2023/08/03 11:38:31;;;;;;;7.32;6.43;;;;;;;;;;2549301;23;20069;-94
2023/08/03 11:39:32;;;;;;;8.13;6.45;;;;;;;;;;2545093;23;20028;-95
2023/08/03 11:40:35;;;;;;;7.18;5.88;;;;;;;;;;2532740;23;20446;-95
2023/08/03 11:41:36;;;;;;;6.88;6.28;;;;;;;;;;2549170;23;20007;-95
2023/08/03 11:42:45;;;;;;;6.75;6.15;;;;;;;;;;2544858;23;20013;-96
2023/08/03 11:43:49;;;;;;;6.65;6.05;;;;;;;;;;2535355;23;20483;-94
2023/08/03 11:48:59;;;;;;;6.50;5.88;;;;;;;;;;2550426;23;20068;-94
2023/08/03 11:50:01;;;;;;;6.43;5.82;;;;;;;;;;2550190;23;19993;-96
2023/08/03 11:51:03;;;;;;;6.47;5.88;;;;;;;;;;2545342;23;20053;-94
2023/08/03 11:52:15;;;;;;;6.15;5.65;;;;;;;;;;2533365;23;20002;-95
2023/08/03 11:53:26;;;;;;;6.22;5.63;;;;;;;;;;2554168;23;19994;-95
2023/08/03 11:54:30;;;;;;;;;;;;;;;;;;2556419;23;20024;-94
2023/08/03 11:55:38;;;;;;;7.38;5.65;;;;;;;;;;2544357;23;19932;-95
2023/08/03 11:56:39;;;;;;;5.97;5.38;;;;;;;;;;2545330;23;20057;-95
2023/08/03 11:59:01;;;;;;;5.78;5.22;;;;;;;;;;2551494;23;19998;-96
2023/08/03 12:00:03;;;;;;;6.00;5.47;;;;;;;;;;2545671;23;20001;-96
2023/08/03 12:01:04;;;;;;;5.40;4.70;;;;;;;;;;2549558;23;20440;-94
2023/08/03 12:02:05;;;;;;;5.72;5.20;;;;;;;;;;2546533;23;20005;-95
2023/08/03 12:03:06;;;;;;;5.47;4.97;;;;;;;;;;2550415;23;20023;-95
2023/08/03 12:04:07;;;;;;;6.10;5.60;;;;;;;;;;2549991;23;19993;-95
2023/08/03 12:05:08;;;;;;;7.20;5.47;;;;;;;;;;2543695;23;19994;-94
2023/08/03 12:06:09;;;;;;;6.03;5.00;;;;;;;;;;2536371;23;20066;-95
2023/08/03 12:07:09;;;;;;;5.97;5.38;;;;;;;;;;2545428;23;20387;-94
2023/08/03 12:08:10;;;;;;;5.90;5.35;;;;;;;;;;2545478;23;19997;-95
2023/08/03 12:09:19;;;;;;;5.25;4.85;;;;;;;;;;2532998;23;20010;-94
2023/08/03 12:10:20;;;;;;;5.95;5.35;;;;;;;;;;2534716;23;19993;-93
2023/08/03 12:11:23;;;;;;;5.28;4.78;;;;;;;;;;2538824;23;20005;-93
2023/08/03 12:12:24;;;;;;;5.80;5.07;;;;;;;;;;2543756;23;19990;-93
2023/08/03 12:13:25;;;;;;;6.03;5.28;;;;;;;;;;2560058;23;20001;-95
2023/08/03 12:14:28;;;;;;;6.18;5.57;;;;;;;;;;2560612;23;20053;-96
2023/08/03 12:15:29;;;;;;;5.38;4.80;;;;;;;;;;2555337;23;19990;-94
2023/08/03 12:16:29;;;;;;;5.80;5.10;;;;;;;;;;2543695;23;20049;-95
2023/08/03 12:17:30;;;;;;;5.25;4.75;;;;;;;;;;2104530;23;10328014;-95
2023/08/03 12:18:31;;;;;;;5.90;5.30;;;;;;;;;;2542613;23;20002;-96
2023/08/03 12:19:34;;;;;;;6.03;5.43;;;;;;;;;;2552606;23;19993;-95
2023/08/03 12:20:35;;;;;;;5.63;5.03;;;;;;;;;;2567936;23;20008;-95
2023/08/03 12:21:36;;;;;;;5.93;5.32;;;;;;;;;;2552360;23;19994;-95
2023/08/03 12:22:39;;;;;;;6.30;5.25;;;;;;;;;;2550163;23;19998;-96
2023/08/03 12:23:41;;;;;;;5.40;4.88;;;;;;;;;;2546054;23;20386;-95
2023/08/03 12:24:41;;;;;;;6.15;5.55;;;;;;;;;;2534099;23;20348;-95
2023/08/03 12:25:42;;;;;;;5.90;5.40;;;;;;;;;;2533243;23;19998;-95
2023/08/03 12:26:42;;;;;;;5.57;4.47;;;;;;;;;;2533506;23;20006;-95
2023/08/03 12:27:43;;;;;;;5.47;4.97;;;;;;;;;;2533064;23;19993;-94
2023/08/03 12:28:44;;;;;;;6.50;4.82;;;;;;;;;;2532627;23;20028;-96
2023/08/03 12:29:54;;;;;;;5.93;5.20;;;;;;;;;;2535262;23;20030;-96
2023/08/03 12:30:54;;;;;;;;;;;;;;;;;;2535725;23;20006;-96
2023/08/03 12:31:55;;;;;;;5.30;4.72;;;;;;;;;;2533126;23;19984;-94
2023/08/03 12:32:55;;;;;;;5.95;5.07;;;;;;;;;;2532728;23;20479;-96
2023/08/03 12:33:56;;;;;;;5.78;5.28;;;;;;;;;;2533023;23;20002;-94
2023/08/03 12:34:57;;;;;;;6.25;4.88;;;;;;;;;;2549610;23;20032;-95
2023/08/03 12:35:57;;;;;;;5.70;5.05;;;;;;;;;;2544571;23;20017;-95
2023/08/03 12:36:57;;;;;;;5.82;5.22;;;;;;;;;;2532931;23;20412;-95
2023/08/03 13:17:54;;;;;;;6.30;5.03;;;;;;;;;;2559646;23;20073;-96
2023/08/03 13:18:57;;;;;;;5.10;4.53;;;;;;;;;;2560240;23;20331;-94
2023/08/03 13:19:57;;;;;;;5.28;4.78;;;;;;;;;;2546561;23;20075;-95
2023/08/03 13:21:01;;;;;;;5.70;4.97;;;;;;;;;;2547384;23;20032;-95
2023/08/03 13:22:10;;;;;;;5.80;4.45;;;;;;;;;;2560545;23;20028;-95
2023/08/03 13:23:25;;;;;;;5.00;4.60;;;;;;;;;;2559959;23;20000;-95
2023/08/03 13:24:26;;;;;;;4.72;4.35;;;;;;;;;;2556514;23;20016;-94
2023/08/03 13:25:31;;;;;;;4.85;4.43;;;;;;;;;;2548079;23;19993;-95
2023/08/03 13:26:35;;;;;;;5.00;4.50;;;;;;;;;;2546456;23;20392;-96
2023/08/03 13:27:36;;;;;;;4.93;4.43;;;;;;;;;;2557862;23;20048;-95
2023/08/03 13:28:39;;;;;;;5.65;4.40;;;;;;;;;;2559708;23;20431;-95
2023/08/03 13:29:44;;;;;;;5.25;4.53;;;;;;;;;;2545697;23;20395;-96
2023/08/03 13:30:44;;;;;;;4.53;4.15;;;;;;;;;;2563725;23;19989;-94
2023/08/03 13:31:46;;;;;;;4.82;4.22;;;;;;;;;;2548590;23;20029;-95
2023/08/03 13:32:50;;;;;;;4.43;4.00;;;;;;;;;;2111271;23;10001796;-94
2023/08/03 13:33:58;;;;;;;4.95;3.75;;;;;;;;;;2545927;23;20056;-95
2023/08/03 13:35:04;;;;;;;5.45;4.68;;;;;;;;;;2547216;23;20063;-96
2023/08/03 13:36:07;;;;;;;4.82;4.43;;;;;;;;;;2547055;23;20029;-95
2023/08/03 13:37:08;;;;;;;6.20;4.18;;;;;;;;;;2539666;23;20002;-96
2023/08/03 13:38:09;;;;;;;4.78;4.15;;;;;;;;;;2544266;23;20111;-94
2023/08/03 13:39:09;;;;;;;5.00;4.25;;;;;;;;;;2553799;23;19994;-95
2023/08/03 13:40:13;;;;;;;4.68;3.70;;;;;;;;;;2562125;23;19993;-95
2023/08/03 13:41:14;;;;;;;4.57;4.13;;;;;;;;;;2557696;23;20342;-94
2023/08/03 13:42:17;;;;;;;4.68;4.00;;;;;;;;;;2544952;23;20493;-95
2023/08/03 13:43:18;;;;;;;4.60;4.15;;;;;;;;;;2557306;23;19992;-95
2023/08/03 13:44:18;;;;;;;5.57;3.97;;;;;;;;;;2557976;23;19993;-95
2023/08/03 13:45:19;;;;;;;4.65;3.83;;;;;;;;;;2575905;23;20334;-95
2023/08/03 13:46:41;;;;;;;4.70;4.07;;;;;;;;;;2562622;23;20053;-94
2023/08/03 13:47:42;;;;;;;4.80;4.30;;;;;;;;;;2562923;23;20324;-95
2023/08/03 13:48:47;;;;;;;4.57;4.18;;;;;;;;;;2558641;23;20107;-96
2023/08/03 13:49:49;;;;;;;4.70;4.30;;;;;;;;;;2549398;23;20021;-94
2023/08/03 13:50:56;;;;;;;6.18;3.95;;;;;;;;;;2546152;23;20008;-96
2023/08/03 13:51:59;;;;;;;4.57;4.18;;;;;;;;;;2550982;23;20013;-93
2023/08/03 13:53:04;;;;;;;4.10;3.50;;;;;;;;;;2551653;23;19982;-95
2023/08/03 13:54:08;;;;;;;5.97;4.50;;;;;;;;;;2549142;23;20292;-94
2023/08/03 13:55:09;;;;;;;4.78;4.20;;;;;;;;;;2546545;23;20002;-95
2023/08/03 13:56:10;;;;;;;6.22;4.40;;;;;;;;;;2561674;23;20423;-94
2023/08/03 13:57:18;;;;;;;5.72;3.78;;;;;;;;;;2560810;23;20042;-94
2023/08/03 13:58:33;;;;;;;4.38;3.97;;;;;;;;;;2551358;23;20285;-95
2023/08/03 14:06:36;;;;;;;4.63;3.78;;;;;;;;;;2558373;23;19991;-96
2023/08/03 14:07:40;;;;;;;4.10;3.80;;;;;;;;;;2557767;23;19997;-95
2023/08/03 14:15:57;;;;;;;4.03;3.45;;;;;;;;;;2566781;23;20100;-95
2023/08/03 14:26:37;;;;;;;4.65;4.03;;;;;;;;;;2543770;23;19915;-93
2023/08/03 14:32:25;;;;;;;6.57;4.10;;;;;;;;;;2528273;23;19999;-94
2023/08/03 14:33:31;;;;;;;6.18;3.90;;;;;;;;;;2514124;23;19990;-95
2023/08/03 14:34:32;;;;;;;4.35;3.92;;;;;;;;;;2504864;23;19998;-95
2023/08/03 14:35:36;;;;;;;5.15;4.03;;;;;;;;;;2476707;23;20058;-95
2023/08/03 14:36:36;;;;;;;4.03;3.63;;;;;;;;;;2524900;23;19998;-95
2023/08/03 14:37:37;;;;;;;6.45;3.75;;;;;;;;;;2516921;23;20111;-95
2023/08/03 14:38:37;;;;;;;4.78;3.83;;;;;;;;;;2519868;23;20023;-95
2023/08/03 14:39:38;;;;;;;4.70;4.30;;;;;;;;;;2520215;23;19994;-95
2023/08/03 14:40:39;;;;;;;5.20;3.88;;;;;;;;;;2505569;23;20002;-96
2023/08/03 14:42:06;;;;;;;3.85;3.45;;;;;;;;;;2511334;23;20046;-96
2023/08/03 14:43:07;;;;;;;4.80;3.78;;;;;;;;;;2509618;23;20388;-96
2023/08/03 14:44:07;;;;;;;5.88;3.80;;;;;;;;;;2513395;23;20007;-95
2023/08/03 14:45:17;;;;;;;4.35;3.95;;;;;;;;;;2501265;23;20014;-94
2023/08/03 14:46:19;;;;;;;3.85;3.50;;;;;;;;;;2501598;23;20002;-94
2023/08/03 14:47:20;;;;;;;4.40;3.85;;;;;;;;;;2514859;23;20395;-95
2023/08/03 14:48:20;;;;;;;4.50;4.10;;;;;;;;;;2473541;23;20110;-95
2023/08/03 14:49:22;;;;;;;5.17;4.20;;;;;;;;;;1666152;23;9999681;-96
2023/08/03 14:50:23;;;;;;;3.58;3.28;;;;;;;;;;2509354;23;20325;-95
2023/08/03 14:51:23;;;;;;;4.45;3.58;;;;;;;;;;2512472;23;20018;-94
2023/08/03 14:52:24;;;;;;;4.22;3.78;;;;;;;;;;2497350;23;20003;-94
2023/08/03 14:53:28;;;;;;;5.20;3.47;;;;;;;;;;2510075;23;20023;-95
2023/08/03 14:54:39;;;;;;;5.90;4.13;;;;;;;;;;2511901;23;20026;-96
2023/08/03 14:55:43;;;;;;;4.55;3.60;;;;;;;;;;2504338;23;20362;-96
2023/08/03 14:56:43;;;;;;;4.35;3.53;;;;;;;;;;2500052;23;20011;-93
2023/08/03 14:57:44;;;;;;;3.85;3.55;;;;;;;;;;2500926;23;20623;-95
2023/08/03 15:02:41;;;;;;;5.18;3.80;;;;;;;;;;2530499;23;20003;-95
2023/08/03 15:03:50;;;;;;;5.07;3.58;;;;;;;;;;2511618;23;19995;-93